sensor_id;sensor_type;location;lat;lon;timestamp;P1;durP1;ratioP1;P2;durP2;ratioP2
8086;SDS011;4086;54.412;9.980;2022-10-16T00:00:21;9.80;;;7.83;;
8086;SDS011;4086;54.412;9.980;2022-10-16T00:02:48;9.80;;;7.70;;
8086;SDS011;4086;54.412;9.980;2022-10-16T00:05:14;11.53;;;8.47;;
8086;SDS011;4086;54.412;9.980;2022-10-16T00:07:40;10.67;;;7.57;;
8086;SDS011;4086;54.412;9.980;2022-10-16T00:10:07;9.23;;;7.47;;
8086;SDS011;4086;54.412;9.980;2022-10-16T00:12:34;11.57;;;8.10;;
8086;SDS011;4086;54.412;9.980;2022-10-16T00:15:01;11.17;;;8.27;;
8086;SDS011;4086;54.412;9.980;2022-10-16T00:17:28;11.43;;;7.63;;
8086;SDS011;4086;54.412;9.980;2022-10-16T00:19:56;10.17;;;7.87;;
8086;SDS011;4086;54.412;9.980;2022-10-16T00:22:22;11.47;;;7.17;;
8086;SDS011;4086;54.412;9.980;2022-10-16T00:24:49;11.87;;;7.43;;
8086;SDS011;4086;54.412;9.980;2022-10-16T00:27:15;10.40;;;7.27;;
8086;SDS011;4086;54.412;9.980;2022-10-16T00:29:42;9.87;;;7.17;;
8086;SDS011;4086;54.412;9.980;2022-10-16T00:32:10;8.33;;;6.90;;
8086;SDS011;4086;54.412;9.980;2022-10-16T00:34:37;11.07;;;6.73;;
8086;SDS011;4086;54.412;9.980;2022-10-16T00:37:03;9.70;;;6.60;;
8086;SDS011;4086;54.412;9.980;2022-10-16T00:39:29;9.00;;;6.30;;
8086;SDS011;4086;54.412;9.980;2022-10-16T00:41:56;8.77;;;6.17;;
8086;SDS011;4086;54.412;9.980;2022-10-16T00:44:42;8.90;;;6.03;;
8086;SDS011;4086;54.412;9.980;2022-10-16T00:47:15;6.30;;;5.70;;
8086;SDS011;4086;54.412;9.980;2022-10-16T00:49:45;10.90;;;6.80;;
8086;SDS011;4086;54.412;9.980;2022-10-16T00:52:12;9.43;;;6.07;;
8086;SDS011;4086;54.412;9.980;2022-10-16T00:54:39;7.90;;;5.37;;
8086;SDS011;4086;54.412;9.980;2022-10-16T00:57:05;8.33;;;5.57;;
8086;SDS011;4086;54.412;9.980;2022-10-16T00:59:33;7.50;;;5.47;;
8086;SDS011;4086;54.412;9.980;2022-10-16T01:02:02;8.07;;;5.30;;
8086;SDS011;4086;54.412;9.980;2022-10-16T01:04:31;8.77;;;5.60;;
8086;SDS011;4086;54.412;9.980;2022-10-16T01:07:02;7.20;;;5.50;;
8086;SDS011;4086;54.412;9.980;2022-10-16T01:09:33;6.63;;;4.80;;
8086;SDS011;4086;54.412;9.980;2022-10-16T01:12:06;8.77;;;4.90;;
8086;SDS011;4086;54.412;9.980;2022-10-16T01:14:38;9.83;;;5.60;;
8086;SDS011;4086;54.412;9.980;2022-10-16T01:17:09;9.63;;;5.03;;
8086;SDS011;4086;54.412;9.980;2022-10-16T01:19:52;7.37;;;5.03;;
8086;SDS011;4086;54.412;9.980;2022-10-16T01:22:30;8.17;;;5.13;;
8086;SDS011;4086;54.412;9.980;2022-10-16T01:25:05;8.10;;;5.37;;
8086;SDS011;4086;54.412;9.980;2022-10-16T01:27:37;7.53;;;5.30;;
8086;SDS011;4086;54.412;9.980;2022-10-16T01:30:07;6.23;;;4.87;;
8086;SDS011;4086;54.412;9.980;2022-10-16T01:32:40;7.90;;;5.17;;
8086;SDS011;4086;54.412;9.980;2022-10-16T01:35:09;6.63;;;5.20;;
8086;SDS011;4086;54.412;9.980;2022-10-16T01:37:39;6.23;;;4.77;;
8086;SDS011;4086;54.412;9.980;2022-10-16T01:40:08;6.87;;;4.97;;
8086;SDS011;4086;54.412;9.980;2022-10-16T01:42:39;7.40;;;5.40;;
8086;SDS011;4086;54.412;9.980;2022-10-16T01:45:07;6.43;;;5.23;;
8086;SDS011;4086;54.412;9.980;2022-10-16T01:47:36;7.33;;;4.93;;
8086;SDS011;4086;54.412;9.980;2022-10-16T01:50:04;7.80;;;4.97;;
8086;SDS011;4086;54.412;9.980;2022-10-16T01:52:31;5.77;;;4.40;;
8086;SDS011;4086;54.412;9.980;2022-10-16T01:55:00;8.20;;;4.83;;
8086;SDS011;4086;54.412;9.980;2022-10-16T01:57:29;8.77;;;4.93;;
8086;SDS011;4086;54.412;9.980;2022-10-16T01:59:58;9.93;;;5.10;;
8086;SDS011;4086;54.412;9.980;2022-10-16T02:02:28;8.63;;;5.50;;
8086;SDS011;4086;54.412;9.980;2022-10-16T02:04:58;5.20;;;4.37;;
8086;SDS011;4086;54.412;9.980;2022-10-16T02:07:26;6.93;;;4.80;;
8086;SDS011;4086;54.412;9.980;2022-10-16T02:09:52;7.63;;;4.97;;
8086;SDS011;4086;54.412;9.980;2022-10-16T02:12:19;7.70;;;4.93;;
8086;SDS011;4086;54.412;9.980;2022-10-16T02:14:48;8.43;;;5.43;;
8086;SDS011;4086;54.412;9.980;2022-10-16T02:17:16;6.27;;;4.50;;
8086;SDS011;4086;54.412;9.980;2022-10-16T02:19:43;8.17;;;4.83;;
8086;SDS011;4086;54.412;9.980;2022-10-16T02:22:14;5.40;;;4.70;;
8086;SDS011;4086;54.412;9.980;2022-10-16T02:24:42;5.93;;;4.87;;
8086;SDS011;4086;54.412;9.980;2022-10-16T02:27:14;5.47;;;4.33;;
8086;SDS011;4086;54.412;9.980;2022-10-16T02:29:45;6.13;;;4.53;;
8086;SDS011;4086;54.412;9.980;2022-10-16T02:32:17;9.97;;;5.43;;
8086;SDS011;4086;54.412;9.980;2022-10-16T02:34:46;7.57;;;4.50;;
8086;SDS011;4086;54.412;9.980;2022-10-16T02:37:13;5.77;;;4.93;;
8086;SDS011;4086;54.412;9.980;2022-10-16T02:39:39;8.40;;;4.70;;
8086;SDS011;4086;54.412;9.980;2022-10-16T02:42:09;8.80;;;5.00;;
8086;SDS011;4086;54.412;9.980;2022-10-16T02:44:36;8.40;;;4.37;;
8086;SDS011;4086;54.412;9.980;2022-10-16T02:47:02;6.57;;;4.50;;
8086;SDS011;4086;54.412;9.980;2022-10-16T02:49:30;5.00;;;4.20;;
8086;SDS011;4086;54.412;9.980;2022-10-16T02:51:56;5.60;;;4.23;;
8086;SDS011;4086;54.412;9.980;2022-10-16T02:54:22;6.67;;;4.90;;
8086;SDS011;4086;54.412;9.980;2022-10-16T02:56:49;7.17;;;4.70;;
8086;SDS011;4086;54.412;9.980;2022-10-16T02:59:16;5.43;;;4.47;;
8086;SDS011;4086;54.412;9.980;2022-10-16T03:01:43;6.47;;;5.03;;
8086;SDS011;4086;54.412;9.980;2022-10-16T03:04:09;6.97;;;5.10;;
8086;SDS011;4086;54.412;9.980;2022-10-16T03:06:37;5.23;;;4.57;;
8086;SDS011;4086;54.412;9.980;2022-10-16T03:09:03;6.23;;;4.97;;
8086;SDS011;4086;54.412;9.980;2022-10-16T03:11:29;9.13;;;4.90;;
8086;SDS011;4086;54.412;9.980;2022-10-16T03:13:56;7.50;;;4.67;;
8086;SDS011;4086;54.412;9.980;2022-10-16T03:16:22;6.93;;;4.30;;
8086;SDS011;4086;54.412;9.980;2022-10-16T03:18:49;5.50;;;4.47;;
8086;SDS011;4086;54.412;9.980;2022-10-16T03:21:15;7.10;;;4.27;;
8086;SDS011;4086;54.412;9.980;2022-10-16T03:23:43;7.30;;;4.57;;
8086;SDS011;4086;54.412;9.980;2022-10-16T03:26:09;7.17;;;4.63;;
8086;SDS011;4086;54.412;9.980;2022-10-16T03:28:35;5.90;;;4.90;;
8086;SDS011;4086;54.412;9.980;2022-10-16T03:31:02;7.77;;;4.73;;
8086;SDS011;4086;54.412;9.980;2022-10-16T03:33:28;7.93;;;4.97;;
8086;SDS011;4086;54.412;9.980;2022-10-16T03:35:54;6.60;;;4.83;;
8086;SDS011;4086;54.412;9.980;2022-10-16T03:38:21;7.90;;;4.70;;
8086;SDS011;4086;54.412;9.980;2022-10-16T03:40:49;6.17;;;4.47;;
8086;SDS011;4086;54.412;9.980;2022-10-16T03:43:15;5.63;;;4.47;;
8086;SDS011;4086;54.412;9.980;2022-10-16T03:45:42;5.43;;;4.33;;
8086;SDS011;4086;54.412;9.980;2022-10-16T03:48:08;8.87;;;4.50;;
8086;SDS011;4086;54.412;9.980;2022-10-16T03:50:35;5.63;;;4.37;;
8086;SDS011;4086;54.412;9.980;2022-10-16T03:53:01;6.80;;;4.47;;
8086;SDS011;4086;54.412;9.980;2022-10-16T03:55:28;6.87;;;4.03;;
8086;SDS011;4086;54.412;9.980;2022-10-16T03:57:55;5.20;;;3.93;;
8086;SDS011;4086;54.412;9.980;2022-10-16T04:00:22;5.83;;;4.13;;
8086;SDS011;4086;54.412;9.980;2022-10-16T04:02:48;8.67;;;3.97;;
8086;SDS011;4086;54.412;9.980;2022-10-16T04:05:15;7.00;;;4.40;;
8086;SDS011;4086;54.412;9.980;2022-10-16T04:07:41;9.00;;;4.03;;
8086;SDS011;4086;54.412;9.980;2022-10-16T04:10:08;4.87;;;3.87;;
8086;SDS011;4086;54.412;9.980;2022-10-16T04:12:35;5.70;;;3.60;;
8086;SDS011;4086;54.412;9.980;2022-10-16T04:15:03;4.53;;;3.57;;
8086;SDS011;4086;54.412;9.980;2022-10-16T04:17:29;5.70;;;3.73;;
8086;SDS011;4086;54.412;9.980;2022-10-16T04:19:55;6.00;;;3.70;;
8086;SDS011;4086;54.412;9.980;2022-10-16T04:22:22;4.37;;;3.27;;
8086;SDS011;4086;54.412;9.980;2022-10-16T04:24:48;5.37;;;3.50;;
8086;SDS011;4086;54.412;9.980;2022-10-16T04:27:14;7.20;;;3.03;;
8086;SDS011;4086;54.412;9.980;2022-10-16T04:29:41;4.87;;;3.20;;
8086;SDS011;4086;54.412;9.980;2022-10-16T04:32:08;4.17;;;2.97;;
8086;SDS011;4086;54.412;9.980;2022-10-16T04:34:35;5.37;;;2.80;;
8086;SDS011;4086;54.412;9.980;2022-10-16T04:37:03;3.33;;;3.00;;
8086;SDS011;4086;54.412;9.980;2022-10-16T04:39:29;6.13;;;2.80;;
8086;SDS011;4086;54.412;9.980;2022-10-16T04:41:55;3.57;;;2.77;;
8086;SDS011;4086;54.412;9.980;2022-10-16T04:44:22;3.23;;;2.23;;
8086;SDS011;4086;54.412;9.980;2022-10-16T04:46:49;4.47;;;2.83;;
8086;SDS011;4086;54.412;9.980;2022-10-16T04:49:17;2.93;;;2.10;;
8086;SDS011;4086;54.412;9.980;2022-10-16T04:51:44;2.73;;;2.30;;
8086;SDS011;4086;54.412;9.980;2022-10-16T04:54:10;2.43;;;2.17;;
8086;SDS011;4086;54.412;9.980;2022-10-16T04:56:37;3.13;;;2.07;;
8086;SDS011;4086;54.412;9.980;2022-10-16T04:59:11;2.07;;;1.70;;
8086;SDS011;4086;54.412;9.980;2022-10-16T05:01:38;3.47;;;2.10;;
8086;SDS011;4086;54.412;9.980;2022-10-16T05:04:04;2.63;;;1.93;;
8086;SDS011;4086;54.412;9.980;2022-10-16T05:06:32;3.87;;;1.93;;
8086;SDS011;4086;54.412;9.980;2022-10-16T05:08:59;4.53;;;2.10;;
8086;SDS011;4086;54.412;9.980;2022-10-16T05:11:25;4.23;;;2.00;;
8086;SDS011;4086;54.412;9.980;2022-10-16T05:13:51;2.20;;;1.87;;
8086;SDS011;4086;54.412;9.980;2022-10-16T05:16:18;4.50;;;2.00;;
8086;SDS011;4086;54.412;9.980;2022-10-16T05:18:44;2.57;;;1.67;;
8086;SDS011;4086;54.412;9.980;2022-10-16T05:21:10;2.77;;;1.90;;
8086;SDS011;4086;54.412;9.980;2022-10-16T05:23:38;3.57;;;1.83;;
8086;SDS011;4086;54.412;9.980;2022-10-16T05:26:04;4.47;;;2.10;;
8086;SDS011;4086;54.412;9.980;2022-10-16T05:28:31;3.67;;;1.73;;
8086;SDS011;4086;54.412;9.980;2022-10-16T05:30:57;4.03;;;1.80;;
8086;SDS011;4086;54.412;9.980;2022-10-16T05:33:24;2.03;;;1.90;;
8086;SDS011;4086;54.412;9.980;2022-10-16T05:35:51;2.37;;;1.73;;
8086;SDS011;4086;54.412;9.980;2022-10-16T05:38:18;5.33;;;2.30;;
8086;SDS011;4086;54.412;9.980;2022-10-16T05:40:51;1.60;;;1.50;;
8086;SDS011;4086;54.412;9.980;2022-10-16T05:43:18;2.63;;;1.53;;
8086;SDS011;4086;54.412;9.980;2022-10-16T05:45:44;1.83;;;1.70;;
8086;SDS011;4086;54.412;9.980;2022-10-16T05:48:10;1.83;;;1.73;;
8086;SDS011;4086;54.412;9.980;2022-10-16T05:50:37;2.60;;;1.67;;
8086;SDS011;4086;54.412;9.980;2022-10-16T05:53:03;1.87;;;1.70;;
8086;SDS011;4086;54.412;9.980;2022-10-16T05:55:29;2.87;;;1.60;;
8086;SDS011;4086;54.412;9.980;2022-10-16T05:57:57;2.13;;;1.60;;
8086;SDS011;4086;54.412;9.980;2022-10-16T06:00:23;2.73;;;1.73;;
8086;SDS011;4086;54.412;9.980;2022-10-16T06:02:50;1.70;;;1.50;;
8086;SDS011;4086;54.412;9.980;2022-10-16T06:05:16;3.23;;;1.77;;
8086;SDS011;4086;54.412;9.980;2022-10-16T06:07:42;1.70;;;1.60;;
8086;SDS011;4086;54.412;9.980;2022-10-16T06:10:09;2.97;;;1.80;;
8086;SDS011;4086;54.412;9.980;2022-10-16T06:12:35;1.70;;;1.60;;
8086;SDS011;4086;54.412;9.980;2022-10-16T06:15:03;1.57;;;1.47;;
8086;SDS011;4086;54.412;9.980;2022-10-16T06:17:30;3.23;;;1.60;;
8086;SDS011;4086;54.412;9.980;2022-10-16T06:19:56;2.43;;;1.70;;
8086;SDS011;4086;54.412;9.980;2022-10-16T06:22:23;2.97;;;1.40;;
8086;SDS011;4086;54.412;9.980;2022-10-16T06:24:49;2.27;;;1.70;;
8086;SDS011;4086;54.412;9.980;2022-10-16T06:27:15;2.83;;;1.67;;
8086;SDS011;4086;54.412;9.980;2022-10-16T06:29:42;2.13;;;1.50;;
8086;SDS011;4086;54.412;9.980;2022-10-16T06:32:11;2.10;;;1.90;;
8086;SDS011;4086;54.412;9.980;2022-10-16T06:34:37;3.97;;;2.00;;
8086;SDS011;4086;54.412;9.980;2022-10-16T06:37:05;3.00;;;1.40;;
8086;SDS011;4086;54.412;9.980;2022-10-16T06:39:31;2.10;;;1.40;;
8086;SDS011;4086;54.412;9.980;2022-10-16T06:41:57;3.67;;;1.67;;
8086;SDS011;4086;54.412;9.980;2022-10-16T06:44:24;4.00;;;2.00;;
8086;SDS011;4086;54.412;9.980;2022-10-16T06:46:50;2.87;;;1.57;;
8086;SDS011;4086;54.412;9.980;2022-10-16T06:49:18;2.87;;;1.50;;
8086;SDS011;4086;54.412;9.980;2022-10-16T06:51:47;3.47;;;1.50;;
8086;SDS011;4086;54.412;9.980;2022-10-16T06:54:14;2.80;;;1.60;;
8086;SDS011;4086;54.412;9.980;2022-10-16T06:56:41;1.90;;;1.37;;
8086;SDS011;4086;54.412;9.980;2022-10-16T06:59:07;1.60;;;1.40;;
8086;SDS011;4086;54.412;9.980;2022-10-16T07:01:34;1.93;;;1.30;;
8086;SDS011;4086;54.412;9.980;2022-10-16T07:04:00;4.03;;;1.57;;
8086;SDS011;4086;54.412;9.980;2022-10-16T07:06:30;2.63;;;1.60;;
8086;SDS011;4086;54.412;9.980;2022-10-16T07:08:57;2.73;;;1.40;;
8086;SDS011;4086;54.412;9.980;2022-10-16T07:11:23;5.43;;;1.90;;
8086;SDS011;4086;54.412;9.980;2022-10-16T07:13:50;3.60;;;1.60;;
8086;SDS011;4086;54.412;9.980;2022-10-16T07:16:18;1.40;;;1.30;;
8086;SDS011;4086;54.412;9.980;2022-10-16T07:18:45;1.90;;;1.30;;
8086;SDS011;4086;54.412;9.980;2022-10-16T07:21:14;2.53;;;1.40;;
8086;SDS011;4086;54.412;9.980;2022-10-16T07:23:43;3.10;;;1.40;;
8086;SDS011;4086;54.412;9.980;2022-10-16T07:26:10;1.53;;;1.43;;
8086;SDS011;4086;54.412;9.980;2022-10-16T07:28:37;1.33;;;1.23;;
8086;SDS011;4086;54.412;9.980;2022-10-16T07:31:05;1.63;;;1.40;;
8086;SDS011;4086;54.412;9.980;2022-10-16T07:33:33;2.30;;;1.70;;
8086;SDS011;4086;54.412;9.980;2022-10-16T07:36:00;1.97;;;1.30;;
8086;SDS011;4086;54.412;9.980;2022-10-16T07:38:26;2.53;;;1.30;;
8086;SDS011;4086;54.412;9.980;2022-10-16T07:40:57;1.53;;;1.40;;
8086;SDS011;4086;54.412;9.980;2022-10-16T07:43:24;1.70;;;1.60;;
8086;SDS011;4086;54.412;9.980;2022-10-16T07:45:51;2.40;;;1.30;;
8086;SDS011;4086;54.412;9.980;2022-10-16T07:48:17;2.47;;;1.60;;
8086;SDS011;4086;54.412;9.980;2022-10-16T07:50:44;2.43;;;1.60;;
8086;SDS011;4086;54.412;9.980;2022-10-16T07:53:11;1.60;;;1.50;;
8086;SDS011;4086;54.412;9.980;2022-10-16T07:55:38;2.57;;;1.50;;
8086;SDS011;4086;54.412;9.980;2022-10-16T07:58:06;2.30;;;1.73;;
8086;SDS011;4086;54.412;9.980;2022-10-16T08:00:32;3.73;;;1.60;;
8086;SDS011;4086;54.412;9.980;2022-10-16T08:02:59;1.80;;;1.70;;
8086;SDS011;4086;54.412;9.980;2022-10-16T08:05:25;2.40;;;1.80;;
8086;SDS011;4086;54.412;9.980;2022-10-16T08:07:52;3.27;;;1.97;;
8086;SDS011;4086;54.412;9.980;2022-10-16T08:10:20;2.60;;;1.70;;
8086;SDS011;4086;54.412;9.980;2022-10-16T08:12:47;2.20;;;1.80;;
8086;SDS011;4086;54.412;9.980;2022-10-16T08:15:15;2.77;;;1.77;;
8086;SDS011;4086;54.412;9.980;2022-10-16T08:17:41;3.13;;;2.00;;
8086;SDS011;4086;54.412;9.980;2022-10-16T08:20:08;1.87;;;1.73;;
8086;SDS011;4086;54.412;9.980;2022-10-16T08:22:35;2.53;;;1.50;;
8086;SDS011;4086;54.412;9.980;2022-10-16T08:25:02;2.57;;;1.73;;
8086;SDS011;4086;54.412;9.980;2022-10-16T08:27:30;2.60;;;1.80;;
8086;SDS011;4086;54.412;9.980;2022-10-16T08:29:57;3.77;;;1.70;;
8086;SDS011;4086;54.412;9.980;2022-10-16T08:32:24;2.23;;;1.70;;
8086;SDS011;4086;54.412;9.980;2022-10-16T08:34:51;2.20;;;1.60;;
8086;SDS011;4086;54.412;9.980;2022-10-16T08:37:17;4.03;;;1.70;;
8086;SDS011;4086;54.412;9.980;2022-10-16T08:39:43;2.23;;;1.70;;
8086;SDS011;4086;54.412;9.980;2022-10-16T08:42:19;3.23;;;1.90;;
8086;SDS011;4086;54.412;9.980;2022-10-16T08:45:01;2.83;;;1.77;;
8086;SDS011;4086;54.412;9.980;2022-10-16T08:47:38;4.30;;;2.27;;
8086;SDS011;4086;54.412;9.980;2022-10-16T08:50:11;3.27;;;2.20;;
8086;SDS011;4086;54.412;9.980;2022-10-16T08:52:40;5.67;;;2.20;;
8086;SDS011;4086;54.412;9.980;2022-10-16T08:55:09;3.10;;;2.10;;
8086;SDS011;4086;54.412;9.980;2022-10-16T08:57:44;3.43;;;2.17;;
8086;SDS011;4086;54.412;9.980;2022-10-16T09:00:12;4.07;;;2.27;;
8086;SDS011;4086;54.412;9.980;2022-10-16T09:02:43;6.27;;;2.50;;
8086;SDS011;4086;54.412;9.980;2022-10-16T09:05:21;3.33;;;2.20;;
8086;SDS011;4086;54.412;9.980;2022-10-16T09:07:54;4.57;;;2.10;;
8086;SDS011;4086;54.412;9.980;2022-10-16T09:10:28;4.63;;;2.17;;
8086;SDS011;4086;54.412;9.980;2022-10-16T09:13:02;2.83;;;1.90;;
8086;SDS011;4086;54.412;9.980;2022-10-16T09:15:39;4.47;;;2.47;;
8086;SDS011;4086;54.412;9.980;2022-10-16T09:18:12;4.03;;;2.30;;
8086;SDS011;4086;54.412;9.980;2022-10-16T09:20:44;4.23;;;2.33;;
8086;SDS011;4086;54.412;9.980;2022-10-16T09:23:15;4.70;;;2.30;;
8086;SDS011;4086;54.412;9.980;2022-10-16T09:25:44;2.50;;;1.87;;
8086;SDS011;4086;54.412;9.980;2022-10-16T09:28:13;4.30;;;1.97;;
8086;SDS011;4086;54.412;9.980;2022-10-16T09:30:40;3.93;;;1.90;;
8086;SDS011;4086;54.412;9.980;2022-10-16T09:33:07;2.23;;;1.83;;
8086;SDS011;4086;54.412;9.980;2022-10-16T09:35:37;2.47;;;1.80;;
8086;SDS011;4086;54.412;9.980;2022-10-16T09:38:05;6.67;;;2.17;;
8086;SDS011;4086;54.412;9.980;2022-10-16T09:40:33;5.77;;;2.33;;
8086;SDS011;4086;54.412;9.980;2022-10-16T09:43:02;3.63;;;2.10;;
8086;SDS011;4086;54.412;9.980;2022-10-16T09:45:52;4.47;;;1.73;;
8086;SDS011;4086;54.412;9.980;2022-10-16T09:48:20;4.53;;;2.00;;
8086;SDS011;4086;54.412;9.980;2022-10-16T09:50:56;6.13;;;2.20;;
8086;SDS011;4086;54.412;9.980;2022-10-16T09:53:23;4.00;;;2.10;;
8086;SDS011;4086;54.412;9.980;2022-10-16T09:55:49;5.70;;;2.10;;
8086;SDS011;4086;54.412;9.980;2022-10-16T09:58:16;4.70;;;2.00;;
8086;SDS011;4086;54.412;9.980;2022-10-16T10:00:47;5.50;;;2.03;;
8086;SDS011;4086;54.412;9.980;2022-10-16T10:03:15;3.23;;;2.00;;
8086;SDS011;4086;54.412;9.980;2022-10-16T10:05:57;3.30;;;1.83;;
8086;SDS011;4086;54.412;9.980;2022-10-16T10:08:24;7.37;;;2.73;;
8086;SDS011;4086;54.412;9.980;2022-10-16T10:10:50;5.77;;;2.10;;
8086;SDS011;4086;54.412;9.980;2022-10-16T10:13:18;3.40;;;2.03;;
8086;SDS011;4086;54.412;9.980;2022-10-16T10:15:45;4.27;;;2.00;;
8086;SDS011;4086;54.412;9.980;2022-10-16T10:18:15;4.67;;;2.27;;
8086;SDS011;4086;54.412;9.980;2022-10-16T10:20:43;2.27;;;2.03;;
8086;SDS011;4086;54.412;9.980;2022-10-16T10:23:19;3.07;;;1.80;;
8086;SDS011;4086;54.412;9.980;2022-10-16T10:25:49;4.37;;;1.80;;
8086;SDS011;4086;54.412;9.980;2022-10-16T10:28:26;3.20;;;2.00;;
8086;SDS011;4086;54.412;9.980;2022-10-16T10:31:00;3.40;;;2.07;;
8086;SDS011;4086;54.412;9.980;2022-10-16T10:33:30;3.50;;;1.97;;
8086;SDS011;4086;54.412;9.980;2022-10-16T10:36:04;5.20;;;2.17;;
8086;SDS011;4086;54.412;9.980;2022-10-16T10:38:46;5.23;;;2.10;;
8086;SDS011;4086;54.412;9.980;2022-10-16T10:44:15;3.47;;;2.13;;
8086;SDS011;4086;54.412;9.980;2022-10-16T10:46:45;4.00;;;1.60;;
8086;SDS011;4086;54.412;9.980;2022-10-16T10:49:25;5.67;;;1.97;;
8086;SDS011;4086;54.412;9.980;2022-10-16T10:52:02;6.30;;;2.20;;
8086;SDS011;4086;54.412;9.980;2022-10-16T10:54:40;2.87;;;1.73;;
8086;SDS011;4086;54.412;9.980;2022-10-16T10:57:09;2.10;;;1.80;;
8086;SDS011;4086;54.412;9.980;2022-10-16T10:59:39;3.97;;;2.00;;
8086;SDS011;4086;54.412;9.980;2022-10-16T11:02:26;9.13;;;2.20;;
8086;SDS011;4086;54.412;9.980;2022-10-16T11:05:07;3.53;;;2.00;;
8086;SDS011;4086;54.412;9.980;2022-10-16T11:07:49;3.87;;;1.77;;
8086;SDS011;4086;54.412;9.980;2022-10-16T11:10:20;3.87;;;1.73;;
8086;SDS011;4086;54.412;9.980;2022-10-16T11:12:48;3.77;;;1.33;;
8086;SDS011;4086;54.412;9.980;2022-10-16T11:15:18;4.77;;;1.70;;
8086;SDS011;4086;54.412;9.980;2022-10-16T11:17:48;4.23;;;1.70;;
8086;SDS011;4086;54.412;9.980;2022-10-16T11:20:18;3.00;;;1.33;;
8086;SDS011;4086;54.412;9.980;2022-10-16T11:22:47;2.90;;;1.23;;
8086;SDS011;4086;54.412;9.980;2022-10-16T11:25:16;2.70;;;1.53;;
8086;SDS011;4086;54.412;9.980;2022-10-16T11:27:47;6.97;;;1.77;;
8086;SDS011;4086;54.412;9.980;2022-10-16T11:30:18;3.97;;;1.40;;
8086;SDS011;4086;54.412;9.980;2022-10-16T11:32:56;3.37;;;1.50;;
8086;SDS011;4086;54.412;9.980;2022-10-16T11:35:32;2.17;;;1.37;;
8086;SDS011;4086;54.412;9.980;2022-10-16T11:38:03;4.37;;;1.60;;
8086;SDS011;4086;54.412;9.980;2022-10-16T11:40:38;4.10;;;1.43;;
8086;SDS011;4086;54.412;9.980;2022-10-16T11:43:10;3.67;;;1.50;;
8086;SDS011;4086;54.412;9.980;2022-10-16T11:45:41;5.00;;;1.60;;
8086;SDS011;4086;54.412;9.980;2022-10-16T11:48:12;3.37;;;1.37;;
8086;SDS011;4086;54.412;9.980;2022-10-16T11:50:45;3.80;;;1.40;;
8086;SDS011;4086;54.412;9.980;2022-10-16T11:53:18;3.50;;;1.30;;
8086;SDS011;4086;54.412;9.980;2022-10-16T11:55:51;5.30;;;1.37;;
8086;SDS011;4086;54.412;9.980;2022-10-16T11:58:20;9.33;;;1.40;;
8086;SDS011;4086;54.412;9.980;2022-10-16T12:00:52;7.33;;;2.03;;
8086;SDS011;4086;54.412;9.980;2022-10-16T12:03:25;7.53;;;1.70;;
8086;SDS011;4086;54.412;9.980;2022-10-16T12:05:56;5.73;;;1.50;;
8086;SDS011;4086;54.412;9.980;2022-10-16T12:08:27;4.37;;;1.70;;
8086;SDS011;4086;54.412;9.980;2022-10-16T12:11:05;3.20;;;1.63;;
8086;SDS011;4086;54.412;9.980;2022-10-16T12:13:34;2.70;;;1.23;;
8086;SDS011;4086;54.412;9.980;2022-10-16T12:16:19;3.77;;;1.83;;
8086;SDS011;4086;54.412;9.980;2022-10-16T12:18:48;5.07;;;1.90;;
8086;SDS011;4086;54.412;9.980;2022-10-16T12:21:15;4.47;;;1.43;;
8086;SDS011;4086;54.412;9.980;2022-10-16T12:23:46;4.00;;;1.60;;
8086;SDS011;4086;54.412;9.980;2022-10-16T12:26:15;8.63;;;1.83;;
8086;SDS011;4086;54.412;9.980;2022-10-16T12:28:50;5.53;;;1.30;;
8086;SDS011;4086;54.412;9.980;2022-10-16T12:31:16;1.70;;;1.10;;
8086;SDS011;4086;54.412;9.980;2022-10-16T12:33:51;4.43;;;1.63;;
8086;SDS011;4086;54.412;9.980;2022-10-16T12:36:26;6.77;;;1.83;;
8086;SDS011;4086;54.412;9.980;2022-10-16T12:38:54;5.37;;;1.70;;
8086;SDS011;4086;54.412;9.980;2022-10-16T12:41:25;3.23;;;1.20;;
8086;SDS011;4086;54.412;9.980;2022-10-16T12:43:52;4.23;;;1.60;;
8086;SDS011;4086;54.412;9.980;2022-10-16T12:46:35;5.80;;;1.40;;
8086;SDS011;4086;54.412;9.980;2022-10-16T12:49:05;4.87;;;1.50;;
8086;SDS011;4086;54.412;9.980;2022-10-16T12:51:34;5.43;;;1.53;;
8086;SDS011;4086;54.412;9.980;2022-10-16T12:54:03;4.10;;;1.60;;
8086;SDS011;4086;54.412;9.980;2022-10-16T12:56:35;2.93;;;1.30;;
8086;SDS011;4086;54.412;9.980;2022-10-16T12:59:08;5.33;;;1.53;;
8086;SDS011;4086;54.412;9.980;2022-10-16T13:01:41;4.80;;;1.40;;
8086;SDS011;4086;54.412;9.980;2022-10-16T13:04:22;3.13;;;1.40;;
8086;SDS011;4086;54.412;9.980;2022-10-16T13:07:00;3.83;;;1.40;;
8086;SDS011;4086;54.412;9.980;2022-10-16T13:09:37;5.57;;;1.47;;
8086;SDS011;4086;54.412;9.980;2022-10-16T13:12:14;7.47;;;1.60;;
8086;SDS011;4086;54.412;9.980;2022-10-16T13:14:55;4.80;;;1.40;;
8086;SDS011;4086;54.412;9.980;2022-10-16T13:17:35;5.50;;;1.40;;
8086;SDS011;4086;54.412;9.980;2022-10-16T13:20:09;4.00;;;1.67;;
8086;SDS011;4086;54.412;9.980;2022-10-16T13:22:45;9.33;;;2.03;;
8086;SDS011;4086;54.412;9.980;2022-10-16T13:25:19;6.13;;;1.80;;
8086;SDS011;4086;54.412;9.980;2022-10-16T13:27:52;5.50;;;1.60;;
8086;SDS011;4086;54.412;9.980;2022-10-16T13:30:21;5.13;;;1.70;;
8086;SDS011;4086;54.412;9.980;2022-10-16T13:32:52;6.70;;;1.90;;
8086;SDS011;4086;54.412;9.980;2022-10-16T13:35:26;4.20;;;1.93;;
8086;SDS011;4086;54.412;9.980;2022-10-16T13:38:02;4.70;;;1.87;;
8086;SDS011;4086;54.412;9.980;2022-10-16T13:40:30;5.33;;;1.70;;
8086;SDS011;4086;54.412;9.980;2022-10-16T13:42:59;7.93;;;1.90;;
8086;SDS011;4086;54.412;9.980;2022-10-16T13:45:25;5.27;;;1.83;;
8086;SDS011;4086;54.412;9.980;2022-10-16T13:48:01;5.33;;;1.53;;
8086;SDS011;4086;54.412;9.980;2022-10-16T13:50:28;5.23;;;1.73;;
8086;SDS011;4086;54.412;9.980;2022-10-16T13:53:02;7.00;;;1.80;;
8086;SDS011;4086;54.412;9.980;2022-10-16T13:55:29;4.00;;;1.50;;
8086;SDS011;4086;54.412;9.980;2022-10-16T13:58:05;6.07;;;1.70;;
8086;SDS011;4086;54.412;9.980;2022-10-16T14:00:33;5.13;;;1.57;;
8086;SDS011;4086;54.412;9.980;2022-10-16T14:03:01;4.10;;;1.67;;
8086;SDS011;4086;54.412;9.980;2022-10-16T14:05:28;4.60;;;1.60;;
8086;SDS011;4086;54.412;9.980;2022-10-16T14:07:54;5.67;;;1.70;;
8086;SDS011;4086;54.412;9.980;2022-10-16T14:10:23;5.57;;;1.67;;
8086;SDS011;4086;54.412;9.980;2022-10-16T14:12:58;4.57;;;1.47;;
8086;SDS011;4086;54.412;9.980;2022-10-16T14:15:28;5.00;;;1.53;;
8086;SDS011;4086;54.412;9.980;2022-10-16T14:17:55;7.83;;;1.50;;
8086;SDS011;4086;54.412;9.980;2022-10-16T14:20:23;3.67;;;1.33;;
8086;SDS011;4086;54.412;9.980;2022-10-16T14:22:57;5.83;;;1.73;;
8086;SDS011;4086;54.412;9.980;2022-10-16T14:25:25;4.53;;;1.30;;
8086;SDS011;4086;54.412;9.980;2022-10-16T14:27:57;4.13;;;1.37;;
8086;SDS011;4086;54.412;9.980;2022-10-16T14:30:25;5.43;;;1.60;;
8086;SDS011;4086;54.412;9.980;2022-10-16T14:32:54;6.17;;;1.50;;
8086;SDS011;4086;54.412;9.980;2022-10-16T14:35:22;4.70;;;1.47;;
8086;SDS011;4086;54.412;9.980;2022-10-16T14:37:53;6.40;;;1.37;;
8086;SDS011;4086;54.412;9.980;2022-10-16T14:40:20;6.03;;;1.73;;
8086;SDS011;4086;54.412;9.980;2022-10-16T14:42:47;5.87;;;1.50;;
8086;SDS011;4086;54.412;9.980;2022-10-16T14:45:15;7.40;;;2.03;;
8086;SDS011;4086;54.412;9.980;2022-10-16T14:47:47;4.33;;;1.70;;
8086;SDS011;4086;54.412;9.980;2022-10-16T14:50:16;5.37;;;1.70;;
8086;SDS011;4086;54.412;9.980;2022-10-16T14:52:42;4.67;;;1.80;;
8086;SDS011;4086;54.412;9.980;2022-10-16T14:55:09;5.60;;;1.47;;
8086;SDS011;4086;54.412;9.980;2022-10-16T14:57:36;3.87;;;1.27;;
8086;SDS011;4086;54.412;9.980;2022-10-16T15:00:04;7.47;;;1.77;;
8086;SDS011;4086;54.412;9.980;2022-10-16T15:02:36;5.53;;;1.43;;
8086;SDS011;4086;54.412;9.980;2022-10-16T15:05:07;5.07;;;1.73;;
8086;SDS011;4086;54.412;9.980;2022-10-16T15:07:39;4.93;;;1.30;;
8086;SDS011;4086;54.412;9.980;2022-10-16T15:10:06;8.70;;;1.90;;
8086;SDS011;4086;54.412;9.980;2022-10-16T15:12:32;3.27;;;1.33;;
8086;SDS011;4086;54.412;9.980;2022-10-16T15:14:59;5.63;;;1.63;;
8086;SDS011;4086;54.412;9.980;2022-10-16T15:17:25;5.67;;;1.70;;
8086;SDS011;4086;54.412;9.980;2022-10-16T15:19:52;5.97;;;1.83;;
8086;SDS011;4086;54.412;9.980;2022-10-16T15:22:18;6.30;;;1.60;;
8086;SDS011;4086;54.412;9.980;2022-10-16T15:24:46;6.50;;;1.43;;
8086;SDS011;4086;54.412;9.980;2022-10-16T15:27:12;8.53;;;2.03;;
8086;SDS011;4086;54.412;9.980;2022-10-16T15:29:38;6.23;;;1.63;;